sensor_id;sensor_type;location;lat;lon;timestamp;temperature;humidity
14783;DHT22;7483;50.498;12.138;2022-07-21T00:00:22;26.10;93.00
14783;DHT22;7483;50.498;12.138;2022-07-21T00:02:52;26.00;93.10
14783;DHT22;7483;50.498;12.138;2022-07-21T00:05:21;26.10;93.30
14783;DHT22;7483;50.498;12.138;2022-07-21T00:07:50;26.00;93.50
14783;DHT22;7483;50.498;12.138;2022-07-21T00:10:21;26.00;93.70
14783;DHT22;7483;50.498;12.138;2022-07-21T00:12:50;25.90;93.90
14783;DHT22;7483;50.498;12.138;2022-07-21T00:15:20;25.90;93.90
14783;DHT22;7483;50.498;12.138;2022-07-21T00:17:49;25.90;94.10
14783;DHT22;7483;50.498;12.138;2022-07-21T00:20:20;25.90;94.20
14783;DHT22;7483;50.498;12.138;2022-07-21T00:22:49;25.90;94.30
14783;DHT22;7483;50.498;12.138;2022-07-21T00:25:17;25.90;94.40
14783;DHT22;7483;50.498;12.138;2022-07-21T00:27:45;25.80;94.50
14783;DHT22;7483;50.498;12.138;2022-07-21T00:30:14;25.80;94.50
14783;DHT22;7483;50.498;12.138;2022-07-21T00:32:43;25.80;94.60
14783;DHT22;7483;50.498;12.138;2022-07-21T00:35:13;25.80;94.70
14783;DHT22;7483;50.498;12.138;2022-07-21T00:37:42;25.80;94.70
14783;DHT22;7483;50.498;12.138;2022-07-21T00:40:11;25.80;94.70
14783;DHT22;7483;50.498;12.138;2022-07-21T00:42:43;25.80;94.80
14783;DHT22;7483;50.498;12.138;2022-07-21T00:45:12;25.90;94.80
14783;DHT22;7483;50.498;12.138;2022-07-21T00:47:41;25.90;94.70
14783;DHT22;7483;50.498;12.138;2022-07-21T00:50:14;25.90;94.80
14783;DHT22;7483;50.498;12.138;2022-07-21T00:52:47;25.90;94.80
14783;DHT22;7483;50.498;12.138;2022-07-21T00:55:18;25.90;94.80
14783;DHT22;7483;50.498;12.138;2022-07-21T00:57:48;26.00;94.80
14783;DHT22;7483;50.498;12.138;2022-07-21T01:00:20;26.00;94.70
14783;DHT22;7483;50.498;12.138;2022-07-21T01:02:50;26.10;94.60
14783;DHT22;7483;50.498;12.138;2022-07-21T01:05:20;26.20;94.60
14783;DHT22;7483;50.498;12.138;2022-07-21T01:07:51;26.30;94.60
14783;DHT22;7483;50.498;12.138;2022-07-21T01:10:22;26.40;94.50
14783;DHT22;7483;50.498;12.138;2022-07-21T01:12:51;26.40;94.40
14783;DHT22;7483;50.498;12.138;2022-07-21T01:15:21;26.40;94.40
14783;DHT22;7483;50.498;12.138;2022-07-21T01:17:50;26.40;94.10
14783;DHT22;7483;50.498;12.138;2022-07-21T01:20:21;26.20;94.50
14783;DHT22;7483;50.498;12.138;2022-07-21T01:22:54;26.00;94.80
14783;DHT22;7483;50.498;12.138;2022-07-21T01:25:23;26.00;94.90
14783;DHT22;7483;50.498;12.138;2022-07-21T01:27:51;25.80;95.10
14783;DHT22;7483;50.498;12.138;2022-07-21T01:30:19;25.80;95.30
14783;DHT22;7483;50.498;12.138;2022-07-21T01:32:47;25.70;95.40
14783;DHT22;7483;50.498;12.138;2022-07-21T01:35:16;25.60;95.60
14783;DHT22;7483;50.498;12.138;2022-07-21T01:37:46;25.60;95.60
14783;DHT22;7483;50.498;12.138;2022-07-21T01:40:17;25.50;95.70
14783;DHT22;7483;50.498;12.138;2022-07-21T01:43:03;25.50;95.80
14783;DHT22;7483;50.498;12.138;2022-07-21T01:45:38;25.40;95.90
14783;DHT22;7483;50.498;12.138;2022-07-21T01:48:07;25.40;96.10
14783;DHT22;7483;50.498;12.138;2022-07-21T01:50:36;25.20;96.30
14783;DHT22;7483;50.498;12.138;2022-07-21T01:53:05;25.10;96.50
14783;DHT22;7483;50.498;12.138;2022-07-21T01:55:34;25.10;96.60
14783;DHT22;7483;50.498;12.138;2022-07-21T01:58:02;25.10;96.80
14783;DHT22;7483;50.498;12.138;2022-07-21T02:00:30;25.10;96.90
14783;DHT22;7483;50.498;12.138;2022-07-21T02:02:58;25.10;97.10
14783;DHT22;7483;50.498;12.138;2022-07-21T02:05:26;25.00;97.20
14783;DHT22;7483;50.498;12.138;2022-07-21T02:07:54;25.00;97.30
14783;DHT22;7483;50.498;12.138;2022-07-21T02:10:22;24.90;97.60
14783;DHT22;7483;50.498;12.138;2022-07-21T02:12:51;24.80;97.70
14783;DHT22;7483;50.498;12.138;2022-07-21T02:15:19;24.70;97.90
14783;DHT22;7483;50.498;12.138;2022-07-21T02:17:47;24.70;98.30
14783;DHT22;7483;50.498;12.138;2022-07-21T02:20:15;24.70;98.10
14783;DHT22;7483;50.498;12.138;2022-07-21T02:22:43;24.80;98.10
14783;DHT22;7483;50.498;12.138;2022-07-21T02:25:12;24.70;98.20
14783;DHT22;7483;50.498;12.138;2022-07-21T02:27:41;24.60;98.40
14783;DHT22;7483;50.498;12.138;2022-07-21T02:30:12;24.50;98.60
14783;DHT22;7483;50.498;12.138;2022-07-21T02:32:41;24.50;98.80
14783;DHT22;7483;50.498;12.138;2022-07-21T02:35:09;24.50;98.90
14783;DHT22;7483;50.498;12.138;2022-07-21T02:37:37;24.60;99.00
14783;DHT22;7483;50.498;12.138;2022-07-21T02:40:07;24.40;99.20
14783;DHT22;7483;50.498;12.138;2022-07-21T02:42:35;24.40;99.40
14783;DHT22;7483;50.498;12.138;2022-07-21T02:45:05;24.40;99.60
14783;DHT22;7483;50.498;12.138;2022-07-21T02:47:49;24.30;99.80
14783;DHT22;7483;50.498;12.138;2022-07-21T02:50:21;24.30;99.90
14783;DHT22;7483;50.498;12.138;2022-07-21T02:52:54;24.30;99.90
14783;DHT22;7483;50.498;12.138;2022-07-21T02:55:24;24.40;99.90
14783;DHT22;7483;50.498;12.138;2022-07-21T02:58:03;24.40;99.90
14783;DHT22;7483;50.498;12.138;2022-07-21T03:00:33;24.40;99.90
14783;DHT22;7483;50.498;12.138;2022-07-21T03:03:03;24.30;99.90
14783;DHT22;7483;50.498;12.138;2022-07-21T03:05:32;24.30;99.90
14783;DHT22;7483;50.498;12.138;2022-07-21T03:08:01;24.20;99.90
14783;DHT22;7483;50.498;12.138;2022-07-21T03:10:30;24.20;99.90
14783;DHT22;7483;50.498;12.138;2022-07-21T03:12:58;24.20;99.90
14783;DHT22;7483;50.498;12.138;2022-07-21T03:15:26;24.20;99.90
14783;DHT22;7483;50.498;12.138;2022-07-21T03:17:54;24.20;99.90
14783;DHT22;7483;50.498;12.138;2022-07-21T03:20:24;24.10;99.90
14783;DHT22;7483;50.498;12.138;2022-07-21T03:22:52;24.10;99.90
14783;DHT22;7483;50.498;12.138;2022-07-21T03:25:21;24.00;99.90
14783;DHT22;7483;50.498;12.138;2022-07-21T03:27:49;24.10;99.90
14783;DHT22;7483;50.498;12.138;2022-07-21T03:30:18;24.20;99.90
14783;DHT22;7483;50.498;12.138;2022-07-21T03:32:46;24.20;99.90
14783;DHT22;7483;50.498;12.138;2022-07-21T03:35:14;24.30;99.90
14783;DHT22;7483;50.498;12.138;2022-07-21T03:37:46;24.30;99.90
14783;DHT22;7483;50.498;12.138;2022-07-21T03:40:18;24.30;99.90
14783;DHT22;7483;50.498;12.138;2022-07-21T03:42:50;24.20;99.90
14783;DHT22;7483;50.498;12.138;2022-07-21T03:45:19;24.30;99.90
14783;DHT22;7483;50.498;12.138;2022-07-21T03:47:47;24.40;99.90
14783;DHT22;7483;50.498;12.138;2022-07-21T03:50:16;24.60;99.90
14783;DHT22;7483;50.498;12.138;2022-07-21T03:52:46;24.40;99.90
14783;DHT22;7483;50.498;12.138;2022-07-21T03:55:15;24.20;99.90
14783;DHT22;7483;50.498;12.138;2022-07-21T03:57:46;24.10;99.90
14783;DHT22;7483;50.498;12.138;2022-07-21T04:00:18;24.00;99.90
14783;DHT22;7483;50.498;12.138;2022-07-21T04:02:47;23.90;99.90
14783;DHT22;7483;50.498;12.138;2022-07-21T04:05:16;23.80;99.90
14783;DHT22;7483;50.498;12.138;2022-07-21T04:07:49;23.80;99.90
14783;DHT22;7483;50.498;12.138;2022-07-21T04:10:19;23.70;99.90
14783;DHT22;7483;50.498;12.138;2022-07-21T04:12:49;23.80;99.90
14783;DHT22;7483;50.498;12.138;2022-07-21T04:15:17;23.80;99.90
14783;DHT22;7483;50.498;12.138;2022-07-21T04:17:46;23.50;99.90
14783;DHT22;7483;50.498;12.138;2022-07-21T04:20:15;23.40;99.90
14783;DHT22;7483;50.498;12.138;2022-07-21T04:22:46;23.50;99.90
14783;DHT22;7483;50.498;12.138;2022-07-21T04:25:17;23.60;99.90
14783;DHT22;7483;50.498;12.138;2022-07-21T04:27:47;23.40;99.90
14783;DHT22;7483;50.498;12.138;2022-07-21T04:30:18;23.20;99.90
14783;DHT22;7483;50.498;12.138;2022-07-21T04:32:47;23.20;99.90
14783;DHT22;7483;50.498;12.138;2022-07-21T04:35:16;23.30;99.90
14783;DHT22;7483;50.498;12.138;2022-07-21T04:37:44;22.90;99.90
14783;DHT22;7483;50.498;12.138;2022-07-21T04:40:14;22.80;99.90
14783;DHT22;7483;50.498;12.138;2022-07-21T04:42:43;22.70;99.90
14783;DHT22;7483;50.498;12.138;2022-07-21T04:45:14;22.80;99.90
14783;DHT22;7483;50.498;12.138;2022-07-21T04:47:44;22.90;99.90
14783;DHT22;7483;50.498;12.138;2022-07-21T04:50:14;22.90;99.90
14783;DHT22;7483;50.498;12.138;2022-07-21T04:52:42;23.00;99.90
14783;DHT22;7483;50.498;12.138;2022-07-21T04:55:11;23.00;99.90
14783;DHT22;7483;50.498;12.138;2022-07-21T04:57:44;22.90;99.90
14783;DHT22;7483;50.498;12.138;2022-07-21T05:00:16;22.90;99.90
14783;DHT22;7483;50.498;12.138;2022-07-21T05:02:46;22.60;99.90
14783;DHT22;7483;50.498;12.138;2022-07-21T05:05:15;22.60;99.90
14783;DHT22;7483;50.498;12.138;2022-07-21T05:07:43;22.70;99.90
14783;DHT22;7483;50.498;12.138;2022-07-21T05:10:14;22.70;99.90
14783;DHT22;7483;50.498;12.138;2022-07-21T05:12:43;22.70;99.90
14783;DHT22;7483;50.498;12.138;2022-07-21T05:15:12;22.60;99.90
14783;DHT22;7483;50.498;12.138;2022-07-21T05:17:40;22.60;99.90
14783;DHT22;7483;50.498;12.138;2022-07-21T05:20:09;22.70;99.90
14783;DHT22;7483;50.498;12.138;2022-07-21T05:22:38;22.70;99.90
14783;DHT22;7483;50.498;12.138;2022-07-21T05:25:07;22.70;99.90
14783;DHT22;7483;50.498;12.138;2022-07-21T05:27:37;22.60;99.90
14783;DHT22;7483;50.498;12.138;2022-07-21T05:30:06;22.60;99.90
14783;DHT22;7483;50.498;12.138;2022-07-21T05:32:35;22.70;99.90
14783;DHT22;7483;50.498;12.138;2022-07-21T05:35:09;22.70;99.90
14783;DHT22;7483;50.498;12.138;2022-07-21T05:37:38;22.70;99.90
14783;DHT22;7483;50.498;12.138;2022-07-21T05:40:08;22.70;99.90
14783;DHT22;7483;50.498;12.138;2022-07-21T05:42:38;22.80;99.90
14783;DHT22;7483;50.498;12.138;2022-07-21T05:45:08;22.90;99.90
14783;DHT22;7483;50.498;12.138;2022-07-21T05:47:36;23.00;99.90
14783;DHT22;7483;50.498;12.138;2022-07-21T05:50:05;23.00;99.90
14783;DHT22;7483;50.498;12.138;2022-07-21T05:52:35;23.00;99.90
14783;DHT22;7483;50.498;12.138;2022-07-21T05:55:03;23.00;99.90
14783;DHT22;7483;50.498;12.138;2022-07-21T05:57:32;23.00;99.90
14783;DHT22;7483;50.498;12.138;2022-07-21T06:00:03;23.20;99.90
14783;DHT22;7483;50.498;12.138;2022-07-21T06:02:33;23.30;99.90
14783;DHT22;7483;50.498;12.138;2022-07-21T06:05:02;23.10;99.90
14783;DHT22;7483;50.498;12.138;2022-07-21T06:07:30;23.10;99.90
14783;DHT22;7483;50.498;12.138;2022-07-21T06:09:58;23.20;99.90
14783;DHT22;7483;50.498;12.138;2022-07-21T06:12:27;23.10;99.90
14783;DHT22;7483;50.498;12.138;2022-07-21T06:14:55;23.20;99.90
14783;DHT22;7483;50.498;12.138;2022-07-21T06:17:25;23.20;99.90
14783;DHT22;7483;50.498;12.138;2022-07-21T06:19:53;23.20;99.90
14783;DHT22;7483;50.498;12.138;2022-07-21T06:22:21;23.20;99.90
14783;DHT22;7483;50.498;12.138;2022-07-21T06:24:49;23.20;99.90
14783;DHT22;7483;50.498;12.138;2022-07-21T06:27:17;23.20;99.90
14783;DHT22;7483;50.498;12.138;2022-07-21T06:29:45;23.20;99.90
14783;DHT22;7483;50.498;12.138;2022-07-21T06:32:13;23.20;99.90
14783;DHT22;7483;50.498;12.138;2022-07-21T06:34:46;23.20;99.90
14783;DHT22;7483;50.498;12.138;2022-07-21T06:37:14;23.30;99.90
14783;DHT22;7483;50.498;12.138;2022-07-21T06:39:42;23.20;99.90
14783;DHT22;7483;50.498;12.138;2022-07-21T06:42:10;23.20;99.90
14783;DHT22;7483;50.498;12.138;2022-07-21T06:44:38;23.30;99.90
14783;DHT22;7483;50.498;12.138;2022-07-21T06:47:06;23.20;99.90
14783;DHT22;7483;50.498;12.138;2022-07-21T06:49:34;23.20;99.90
14783;DHT22;7483;50.498;12.138;2022-07-21T06:52:04;23.20;99.90
14783;DHT22;7483;50.498;12.138;2022-07-21T06:54:32;23.30;99.90
14783;DHT22;7483;50.498;12.138;2022-07-21T06:57:00;23.40;99.90
14783;DHT22;7483;50.498;12.138;2022-07-21T06:59:28;23.50;99.90
14783;DHT22;7483;50.498;12.138;2022-07-21T07:01:56;23.50;99.90
14783;DHT22;7483;50.498;12.138;2022-07-21T07:04:26;23.50;99.90
14783;DHT22;7483;50.498;12.138;2022-07-21T07:06:54;23.50;99.90
14783;DHT22;7483;50.498;12.138;2022-07-21T07:09:23;23.30;99.90
14783;DHT22;7483;50.498;12.138;2022-07-21T07:11:51;23.20;99.90
14783;DHT22;7483;50.498;12.138;2022-07-21T07:14:40;23.10;99.90
14783;DHT22;7483;50.498;12.138;2022-07-21T07:17:08;23.00;99.90
14783;DHT22;7483;50.498;12.138;2022-07-21T07:19:37;23.00;99.90
14783;DHT22;7483;50.498;12.138;2022-07-21T07:22:05;23.10;99.90
14783;DHT22;7483;50.498;12.138;2022-07-21T07:24:34;23.20;99.90
14783;DHT22;7483;50.498;12.138;2022-07-21T07:27:03;23.20;99.90
14783;DHT22;7483;50.498;12.138;2022-07-21T07:29:31;23.20;99.90
14783;DHT22;7483;50.498;12.138;2022-07-21T07:31:59;23.20;99.90
14783;DHT22;7483;50.498;12.138;2022-07-21T07:34:27;23.20;99.90
14783;DHT22;7483;50.498;12.138;2022-07-21T07:36:56;23.30;99.90
14783;DHT22;7483;50.498;12.138;2022-07-21T07:39:24;23.30;99.90
14783;DHT22;7483;50.498;12.138;2022-07-21T07:41:53;23.20;99.90
14783;DHT22;7483;50.498;12.138;2022-07-21T07:44:23;23.10;99.90
14783;DHT22;7483;50.498;12.138;2022-07-21T07:46:51;23.00;99.90
14783;DHT22;7483;50.498;12.138;2022-07-21T07:49:19;23.00;99.90
14783;DHT22;7483;50.498;12.138;2022-07-21T07:51:47;22.90;99.90
14783;DHT22;7483;50.498;12.138;2022-07-21T07:54:15;22.90;99.90
14783;DHT22;7483;50.498;12.138;2022-07-21T07:56:43;22.80;99.90
14783;DHT22;7483;50.498;12.138;2022-07-21T07:59:12;22.80;99.90
14783;DHT22;7483;50.498;12.138;2022-07-21T08:01:40;22.70;99.90
14783;DHT22;7483;50.498;12.138;2022-07-21T08:04:08;22.60;99.90
14783;DHT22;7483;50.498;12.138;2022-07-21T08:06:36;22.50;99.90
14783;DHT22;7483;50.498;12.138;2022-07-21T08:09:04;22.40;99.90
14783;DHT22;7483;50.498;12.138;2022-07-21T08:11:32;22.30;99.90
14783;DHT22;7483;50.498;12.138;2022-07-21T08:14:00;22.30;99.90
14783;DHT22;7483;50.498;12.138;2022-07-21T08:16:30;22.20;99.90
14783;DHT22;7483;50.498;12.138;2022-07-21T08:18:58;22.20;99.90
14783;DHT22;7483;50.498;12.138;2022-07-21T08:21:26;22.10;99.90
14783;DHT22;7483;50.498;12.138;2022-07-21T08:24:17;22.20;99.90
14783;DHT22;7483;50.498;12.138;2022-07-21T08:26:45;22.20;99.90
14783;DHT22;7483;50.498;12.138;2022-07-21T08:29:13;22.20;99.90
14783;DHT22;7483;50.498;12.138;2022-07-21T08:31:42;22.30;99.90
14783;DHT22;7483;50.498;12.138;2022-07-21T08:34:11;22.20;99.90
14783;DHT22;7483;50.498;12.138;2022-07-21T08:36:39;22.30;99.90
14783;DHT22;7483;50.498;12.138;2022-07-21T08:39:06;22.10;99.90
14783;DHT22;7483;50.498;12.138;2022-07-21T08:41:36;22.10;99.90
14783;DHT22;7483;50.498;12.138;2022-07-21T08:44:05;22.10;99.90
14783;DHT22;7483;50.498;12.138;2022-07-21T08:46:34;22.00;99.90
14783;DHT22;7483;50.498;12.138;2022-07-21T08:49:03;21.90;99.90
14783;DHT22;7483;50.498;12.138;2022-07-21T08:51:32;21.90;99.90
14783;DHT22;7483;50.498;12.138;2022-07-21T08:54:02;21.90;99.90
14783;DHT22;7483;50.498;12.138;2022-07-21T08:56:31;22.00;99.90
14783;DHT22;7483;50.498;12.138;2022-07-21T08:59:00;21.90;99.90
14783;DHT22;7483;50.498;12.138;2022-07-21T09:01:31;21.90;99.90
14783;DHT22;7483;50.498;12.138;2022-07-21T09:04:20;21.90;99.90
14783;DHT22;7483;50.498;12.138;2022-07-21T09:06:52;22.00;99.90
14783;DHT22;7483;50.498;12.138;2022-07-21T09:09:22;21.80;99.90
14783;DHT22;7483;50.498;12.138;2022-07-21T09:11:52;21.80;99.90
14783;DHT22;7483;50.498;12.138;2022-07-21T09:14:23;21.90;99.90
14783;DHT22;7483;50.498;12.138;2022-07-21T09:16:54;21.80;99.90
14783;DHT22;7483;50.498;12.138;2022-07-21T09:19:34;21.90;99.90
14783;DHT22;7483;50.498;12.138;2022-07-21T09:22:05;21.90;99.90
14783;DHT22;7483;50.498;12.138;2022-07-21T09:24:35;21.80;99.90
14783;DHT22;7483;50.498;12.138;2022-07-21T09:27:08;21.80;99.90
14783;DHT22;7483;50.498;12.138;2022-07-21T09:29:40;21.80;99.90
14783;DHT22;7483;50.498;12.138;2022-07-21T09:32:16;21.80;99.90
14783;DHT22;7483;50.498;12.138;2022-07-21T09:34:49;21.90;99.90
14783;DHT22;7483;50.498;12.138;2022-07-21T09:37:19;21.90;99.90
14783;DHT22;7483;50.498;12.138;2022-07-21T09:39:51;22.00;99.90
14783;DHT22;7483;50.498;12.138;2022-07-21T09:42:23;22.10;99.90
14783;DHT22;7483;50.498;12.138;2022-07-21T09:44:55;22.30;99.90
14783;DHT22;7483;50.498;12.138;2022-07-21T09:47:26;22.40;99.90
14783;DHT22;7483;50.498;12.138;2022-07-21T09:49:59;22.60;99.90
14783;DHT22;7483;50.498;12.138;2022-07-21T09:52:53;22.80;99.90
14783;DHT22;7483;50.498;12.138;2022-07-21T09:55:22;22.80;99.90
14783;DHT22;7483;50.498;12.138;2022-07-21T09:57:51;23.00;99.90
14783;DHT22;7483;50.498;12.138;2022-07-21T10:00:19;23.10;99.90
14783;DHT22;7483;50.498;12.138;2022-07-21T10:02:48;23.40;99.90
14783;DHT22;7483;50.498;12.138;2022-07-21T10:05:19;23.50;99.90
14783;DHT22;7483;50.498;12.138;2022-07-21T10:07:57;23.40;99.90
14783;DHT22;7483;50.498;12.138;2022-07-21T10:10:32;23.50;99.90
14783;DHT22;7483;50.498;12.138;2022-07-21T10:13:20;23.60;99.90
14783;DHT22;7483;50.498;12.138;2022-07-21T10:15:50;23.60;99.90
14783;DHT22;7483;50.498;12.138;2022-07-21T10:18:19;23.60;99.90
14783;DHT22;7483;50.498;12.138;2022-07-21T10:20:58;23.50;99.90
14783;DHT22;7483;50.498;12.138;2022-07-21T10:23:35;23.60;99.90
14783;DHT22;7483;50.498;12.138;2022-07-21T10:26:08;23.50;99.90
14783;DHT22;7483;50.498;12.138;2022-07-21T10:28:38;23.50;99.90
14783;DHT22;7483;50.498;12.138;2022-07-21T10:31:16;23.50;99.90
14783;DHT22;7483;50.498;12.138;2022-07-21T10:33:58;23.50;99.90
14783;DHT22;7483;50.498;12.138;2022-07-21T10:36:42;23.50;99.90
14783;DHT22;7483;50.498;12.138;2022-07-21T10:39:24;23.50;99.90
14783;DHT22;7483;50.498;12.138;2022-07-21T10:41:55;23.20;99.90
14783;DHT22;7483;50.498;12.138;2022-07-21T10:44:43;23.20;99.90
14783;DHT22;7483;50.498;12.138;2022-07-21T10:47:14;23.20;99.90
14783;DHT22;7483;50.498;12.138;2022-07-21T10:49:48;23.40;99.90
14783;DHT22;7483;50.498;12.138;2022-07-21T10:55:30;23.30;99.90
14783;DHT22;7483;50.498;12.138;2022-07-21T10:58:17;23.30;99.90
14783;DHT22;7483;50.498;12.138;2022-07-21T11:00:52;23.40;99.90
14783;DHT22;7483;50.498;12.138;2022-07-21T11:03:23;23.50;99.90
14783;DHT22;7483;50.498;12.138;2022-07-21T11:06:13;23.50;99.90
14783;DHT22;7483;50.498;12.138;2022-07-21T11:08:46;23.60;99.90
14783;DHT22;7483;50.498;12.138;2022-07-21T11:11:16;23.50;99.90
14783;DHT22;7483;50.498;12.138;2022-07-21T11:14:00;23.60;99.90
14783;DHT22;7483;50.498;12.138;2022-07-21T11:17:00;23.70;99.90
14783;DHT22;7483;50.498;12.138;2022-07-21T11:19:34;23.70;99.90
14783;DHT22;7483;50.498;12.138;2022-07-21T11:22:08;23.80;99.90
14783;DHT22;7483;50.498;12.138;2022-07-21T11:24:42;23.80;99.90
14783;DHT22;7483;50.498;12.138;2022-07-21T11:27:13;24.10;99.90
14783;DHT22;7483;50.498;12.138;2022-07-21T11:29:45;24.20;99.90
14783;DHT22;7483;50.498;12.138;2022-07-21T11:32:14;24.10;99.90
14783;DHT22;7483;50.498;12.138;2022-07-21T11:34:47;24.10;99.90
14783;DHT22;7483;50.498;12.138;2022-07-21T11:37:17;24.10;99.90
14783;DHT22;7483;50.498;12.138;2022-07-21T11:40:07;24.10;99.90
14783;DHT22;7483;50.498;12.138;2022-07-21T11:42:39;24.00;99.90
14783;DHT22;7483;50.498;12.138;2022-07-21T11:45:10;24.10;99.90
14783;DHT22;7483;50.498;12.138;2022-07-21T11:47:39;24.10;99.90
14783;DHT22;7483;50.498;12.138;2022-07-21T11:50:16;24.20;99.90
14783;DHT22;7483;50.498;12.138;2022-07-21T11:52:44;24.30;99.90
14783;DHT22;7483;50.498;12.138;2022-07-21T11:55:14;24.70;99.90
14783;DHT22;7483;50.498;12.138;2022-07-21T11:57:44;25.30;99.90
14783;DHT22;7483;50.498;12.138;2022-07-21T12:00:14;25.80;99.90
14783;DHT22;7483;50.498;12.138;2022-07-21T12:02:48;26.10;99.90
14783;DHT22;7483;50.498;12.138;2022-07-21T12:05:16;26.30;99.90
14783;DHT22;7483;50.498;12.138;2022-07-21T12:07:46;26.70;99.90
14783;DHT22;7483;50.498;12.138;2022-07-21T12:10:24;26.80;99.90
14783;DHT22;7483;50.498;12.138;2022-07-21T12:12:58;27.00;99.90
14783;DHT22;7483;50.498;12.138;2022-07-21T12:15:29;27.00;99.90
14783;DHT22;7483;50.498;12.138;2022-07-21T12:18:02;27.10;99.90
14783;DHT22;7483;50.498;12.138;2022-07-21T12:20:34;27.40;99.90
14783;DHT22;7483;50.498;12.138;2022-07-21T12:23:18;27.30;99.90
14783;DHT22;7483;50.498;12.138;2022-07-21T12:25:49;27.40;99.90
14783;DHT22;7483;50.498;12.138;2022-07-21T12:28:40;27.60;99.90
14783;DHT22;7483;50.498;12.138;2022-07-21T12:31:10;27.80;99.90
14783;DHT22;7483;50.498;12.138;2022-07-21T12:33:41;27.90;99.90
14783;DHT22;7483;50.498;12.138;2022-07-21T12:36:29;27.80;99.90
14783;DHT22;7483;50.498;12.138;2022-07-21T12:38:57;27.90;99.90
14783;DHT22;7483;50.498;12.138;2022-07-21T12:41:45;28.10;99.90
14783;DHT22;7483;50.498;12.138;2022-07-21T12:44:13;28.20;99.80
14783;DHT22;7483;50.498;12.138;2022-07-21T12:46:41;28.50;99.60
14783;DHT22;7483;50.498;12.138;2022-07-21T12:49:11;28.40;99.80
14783;DHT22;7483;50.498;12.138;2022-07-21T12:51:40;28.20;99.10
14783;DHT22;7483;50.498;12.138;2022-07-21T12:54:09;28.30;99.30
14783;DHT22;7483;50.498;12.138;2022-07-21T12:56:37;28.20;99.20
14783;DHT22;7483;50.498;12.138;2022-07-21T12:59:06;28.30;96.30
14783;DHT22;7483;50.498;12.138;2022-07-21T13:01:35;28.20;97.10
14783;DHT22;7483;50.498;12.138;2022-07-21T13:04:05;28.10;96.80
14783;DHT22;7483;50.498;12.138;2022-07-21T13:06:33;27.70;96.40
14783;DHT22;7483;50.498;12.138;2022-07-21T13:09:03;27.80;96.60
14783;DHT22;7483;50.498;12.138;2022-07-21T13:11:31;27.90;95.40
14783;DHT22;7483;50.498;12.138;2022-07-21T13:13:59;28.10;95.30
14783;DHT22;7483;50.498;12.138;2022-07-21T13:16:30;28.10;95.50
14783;DHT22;7483;50.498;12.138;2022-07-21T13:18:58;28.20;95.60
14783;DHT22;7483;50.498;12.138;2022-07-21T13:21:26;28.10;95.50
14783;DHT22;7483;50.498;12.138;2022-07-21T13:23:54;27.80;95.70
14783;DHT22;7483;50.498;12.138;2022-07-21T13:26:22;27.60;96.00
14783;DHT22;7483;50.498;12.138;2022-07-21T13:28:51;27.50;96.40
14783;DHT22;7483;50.498;12.138;2022-07-21T13:31:19;27.60;96.20
14783;DHT22;7483;50.498;12.138;2022-07-21T13:33:49;27.60;96.40
14783;DHT22;7483;50.498;12.138;2022-07-21T13:36:17;27.50;96.40
14783;DHT22;7483;50.498;12.138;2022-07-21T13:38:45;27.30;97.20
14783;DHT22;7483;50.498;12.138;2022-07-21T13:41:13;27.30;97.40
14783;DHT22;7483;50.498;12.138;2022-07-21T13:44:03;27.30;97.30
14783;DHT22;7483;50.498;12.138;2022-07-21T13:46:31;27.50;97.40
14783;DHT22;7483;50.498;12.138;2022-07-21T13:49:01;27.50;97.30
14783;DHT22;7483;50.498;12.138;2022-07-21T13:51:29;27.50;96.80
14783;DHT22;7483;50.498;12.138;2022-07-21T13:53:57;27.40;96.70
14783;DHT22;7483;50.498;12.138;2022-07-21T13:56:25;27.60;96.50
14783;DHT22;7483;50.498;12.138;2022-07-21T13:58:54;27.80;96.20
14783;DHT22;7483;50.498;12.138;2022-07-21T14:01:22;27.90;96.40
14783;DHT22;7483;50.498;12.138;2022-07-21T14:03:50;28.10;96.10
14783;DHT22;7483;50.498;12.138;2022-07-21T14:06:21;28.00;95.40
14783;DHT22;7483;50.498;12.138;2022-07-21T14:08:49;28.30;95.50
14783;DHT22;7483;50.498;12.138;2022-07-21T14:11:17;28.20;94.90
14783;DHT22;7483;50.498;12.138;2022-07-21T14:13:49;28.40;95.10
14783;DHT22;7483;50.498;12.138;2022-07-21T14:16:19;28.60;94.10
14783;DHT22;7483;50.498;12.138;2022-07-21T14:18:47;28.50;94.00
14783;DHT22;7483;50.498;12.138;2022-07-21T14:21:15;28.50;93.90
14783;DHT22;7483;50.498;12.138;2022-07-21T14:23:44;28.30;94.30
14783;DHT22;7483;50.498;12.138;2022-07-21T14:26:12;28.30;94.50
14783;DHT22;7483;50.498;12.138;2022-07-21T14:28:40;28.10;94.70
14783;DHT22;7483;50.498;12.138;2022-07-21T14:31:08;28.20;94.70
14783;DHT22;7483;50.498;12.138;2022-07-21T14:33:37;28.30;94.60
14783;DHT22;7483;50.498;12.138;2022-07-21T14:36:06;28.30;94.30
14783;DHT22;7483;50.498;12.138;2022-07-21T14:38:35;28.60;93.00
14783;DHT22;7483;50.498;12.138;2022-07-21T14:41:04;28.30;92.90
14783;DHT22;7483;50.498;12.138;2022-07-21T14:43:32;28.30;92.80
14783;DHT22;7483;50.498;12.138;2022-07-21T14:46:00;28.50;92.30
14783;DHT22;7483;50.498;12.138;2022-07-21T14:48:29;28.40;92.30
14783;DHT22;7483;50.498;12.138;2022-07-21T14:50:57;28.40;92.20
14783;DHT22;7483;50.498;12.138;2022-07-21T14:53:25;28.20;92.30
14783;DHT22;7483;50.498;12.138;2022-07-21T14:55:53;28.10;92.20
14783;DHT22;7483;50.498;12.138;2022-07-21T14:58:22;28.20;91.90
14783;DHT22;7483;50.498;12.138;2022-07-21T15:00:50;28.30;91.70
14783;DHT22;7483;50.498;12.138;2022-07-21T15:03:19;28.30;91.90
14783;DHT22;7483;50.498;12.138;2022-07-21T15:05:47;28.40;92.10
14783;DHT22;7483;50.498;12.138;2022-07-21T15:08:15;28.50;92.20
14783;DHT22;7483;50.498;12.138;2022-07-21T15:10:44;28.50;92.20
14783;DHT22;7483;50.498;12.138;2022-07-21T15:13:13;28.30;92.20
14783;DHT22;7483;50.498;12.138;2022-07-21T15:15:42;28.40;92.30
14783;DHT22;7483;50.498;12.138;2022-07-21T15:18:11;28.60;92.10
14783;DHT22;7483;50.498;12.138;2022-07-21T15:20:40;28.70;91.70
14783;DHT22;7483;50.498;12.138;2022-07-21T15:23:08;28.80;91.50
14783;DHT22;7483;50.498;12.138;2022-07-21T15:25:36;28.70;91.10
14783;DHT22;7483;50.498;12.138;2022-07-21T15:28:04;28.70;91.10
14783;DHT22;7483;50.498;12.138;2022-07-21T15:30:33;28.50;90.30
14783;DHT22;7483;50.498;12.138;2022-07-21T15:33:02;28.30;90.20
14783;DHT22;7483;50.498;12.138;2022-07-21T15:35:31;28.40;90.50
14783;DHT22;7483;50.498;12.138;2022-07-21T15:37:59;28.60;90.70
14783;DHT22;7483;50.498;12.138;2022-07-21T15:40:27;28.50;90.90
14783;DHT22;7483;50.498;12.138;2022-07-21T15:42:55;28.40;91.00
14783;DHT22;7483;50.498;12.138;2022-07-21T15:45:23;28.30;91.00
14783;DHT22;7483;50.498;12.138;2022-07-21T15:47:51;28.50;90.80
14783;DHT22;7483;50.498;12.138;2022-07-21T15:50:21;28.40;90.60
14783;DHT22;7483;50.498;12.138;2022-07-21T15:52:49;28.10;90.70